createdAt,value
2019-01-21T00:00:59.996Z,0.28
2019-01-21T00:03:14.621Z,0.28
2019-01-21T00:05:23.638Z,0.23
2019-01-21T00:07:34.443Z,0.22
2019-01-21T00:09:45.265Z,0.17
2019-01-21T00:11:56.058Z,0.13
2019-01-21T00:14:06.882Z,0.08
2019-01-21T00:16:17.680Z,0.09
2019-01-21T00:18:28.501Z,0.04
2019-01-21T00:20:39.322Z,0.10
2019-01-21T00:22:50.136Z,0.11
2019-01-21T00:25:00.949Z,0.09
2019-01-21T00:27:11.746Z,0.06
2019-01-21T00:29:22.569Z,0.01
2019-01-21T00:31:33.363Z,-0.02
2019-01-21T00:33:44.185Z,0.01
2019-01-21T00:35:55.116Z,0.04
2019-01-21T00:38:05.905Z,0.06
2019-01-21T00:40:16.822Z,0.02
2019-01-21T00:42:27.619Z,0.07
2019-01-21T00:44:38.434Z,-0.07
2019-01-21T00:46:49.243Z,-0.14
2019-01-21T00:49:00.062Z,-0.18
2019-01-21T00:51:10.865Z,-0.14
2019-01-21T00:53:21.659Z,-0.17
2019-01-21T00:55:32.488Z,-0.13
2019-01-21T00:57:43.404Z,-0.12
2019-01-21T00:59:54.232Z,-0.05
2019-01-21T01:02:05.026Z,-0.01
2019-01-21T01:04:16.106Z,-0.01
2019-01-21T01:06:26.868Z,0.04
2019-01-21T01:08:37.657Z,0.06
2019-01-21T01:10:48.487Z,0.07
2019-01-21T01:12:59.306Z,0.09
2019-01-21T01:15:51.762Z,0.09
2019-01-21T01:18:02.853Z,0.09
2019-01-21T01:20:55.313Z,0.11
2019-01-21T01:23:06.104Z,0.12
2019-01-21T01:25:16.930Z,0.13
2019-01-21T01:27:27.744Z,0.14
2019-01-21T01:29:38.540Z,0.14
2019-01-21T01:31:49.355Z,0.11
2019-01-21T01:34:00.164Z,0.07
2019-01-21T01:36:10.997Z,-0.02
2019-01-21T01:38:21.791Z,-0.05
2019-01-21T01:40:32.599Z,-0.07
2019-01-21T01:42:43.604Z,-0.12
2019-01-21T01:44:54.405Z,-0.14
2019-01-21T01:47:05.320Z,-0.20
2019-01-21T01:49:16.117Z,-0.19
2019-01-21T01:51:27.029Z,-0.15
2019-01-21T01:53:37.821Z,-0.17
2019-01-21T01:55:48.640Z,-0.17
2019-01-21T01:57:59.689Z,-0.19
2019-01-21T02:00:52.123Z,-0.20
2019-01-21T02:03:44.604Z,-0.23
2019-01-21T02:05:55.503Z,-0.24
2019-01-21T02:08:06.406Z,-0.32
2019-01-21T02:10:17.299Z,-0.27
2019-01-21T02:12:28.301Z,-0.28
2019-01-21T02:14:39.123Z,-0.26
2019-01-21T02:16:49.939Z,-0.24
2019-01-21T02:19:00.758Z,-0.22
2019-01-21T02:21:11.660Z,-0.32
2019-01-21T02:24:04.151Z,-0.38
2019-01-21T02:26:56.596Z,-0.41
2019-01-21T02:29:49.053Z,-0.39
2019-01-21T02:32:39.575Z,-0.43
2019-01-21T02:35:30.140Z,-0.39
2019-01-21T02:38:20.667Z,-0.38
2019-01-21T02:41:13.128Z,-0.44
2019-01-21T02:44:05.624Z,-0.43
2019-01-21T02:46:58.066Z,-0.50
2019-01-21T02:49:50.517Z,-0.59
2019-01-21T02:52:41.067Z,-0.65
2019-01-21T02:55:33.510Z,-0.65
2019-01-21T02:58:24.360Z,-0.70
2019-01-21T03:00:47.780Z,-0.74
2019-01-21T03:03:40.246Z,-0.75
2019-01-21T03:06:32.766Z,-0.80
2019-01-21T03:09:25.206Z,-0.82
2019-01-21T03:12:15.748Z,-0.86
2019-01-21T03:15:08.205Z,-0.88
2019-01-21T03:18:07.783Z,-0.88
2019-01-21T03:20:35.120Z,-0.93
2019-01-21T03:23:25.677Z,-0.99
2019-01-21T03:26:16.228Z,-1.05
2019-01-21T03:29:06.805Z,-1.07
2019-01-21T03:31:57.366Z,-1.06
2019-01-21T03:34:47.934Z,-1.07
2019-01-21T03:37:38.476Z,-1.07
2019-01-21T03:40:29.008Z,-1.07
2019-01-21T03:43:21.471Z,-1.12
2019-01-21T03:46:12.033Z,-1.12
2019-01-21T03:49:04.500Z,-1.17
2019-01-21T03:51:55.062Z,-1.31
2019-01-21T03:54:47.512Z,-1.40
2019-01-21T03:57:39.994Z,-1.45
2019-01-21T04:00:32.434Z,-1.51
2019-01-21T04:03:24.936Z,-1.51
2019-01-21T04:06:15.453Z,-1.55
2019-01-21T04:09:06.024Z,-1.55
2019-01-21T04:11:56.553Z,-1.53
2019-01-21T04:14:49.011Z,-1.59
2019-01-21T04:17:39.563Z,-1.66
2019-01-21T04:20:31.750Z,-1.70
2019-01-21T04:23:22.356Z,-1.73
2019-01-21T04:26:12.904Z,-1.78
2019-01-21T04:29:05.683Z,-1.83
2019-01-21T04:31:56.226Z,-1.88
2019-01-21T04:34:47.094Z,-1.93
2019-01-21T04:37:39.554Z,-2.01
2019-01-21T04:40:30.109Z,-2.01
2019-01-21T04:43:20.671Z,-2.10
2019-01-21T04:46:13.164Z,-2.28
2019-01-21T04:49:03.744Z,-2.39
2019-01-21T04:51:56.182Z,-2.52
2019-01-21T04:54:48.724Z,-2.56
2019-01-21T04:57:39.277Z,-2.56
2019-01-21T05:00:29.841Z,-2.56
2019-01-21T05:03:20.401Z,-2.57
2019-01-21T05:06:10.954Z,-2.60
2019-01-21T05:09:01.512Z,-2.67
2019-01-21T05:11:52.063Z,-2.72
2019-01-21T05:14:43.952Z,-2.80
2019-01-21T05:17:36.494Z,-2.82
2019-01-21T05:20:28.961Z,-3.06
2019-01-21T05:23:19.512Z,-3.17
2019-01-21T05:26:11.978Z,-3.17
2019-01-21T05:29:02.530Z,-3.31
2019-01-21T05:31:54.995Z,-3.38
2019-01-21T05:34:45.541Z,-3.43
2019-01-21T05:37:36.084Z,-3.45
2019-01-21T05:40:26.628Z,-3.47
2019-01-21T05:43:19.120Z,-3.56
2019-01-21T05:46:09.633Z,-3.56
2019-01-21T05:49:00.224Z,-3.62
2019-01-21T05:51:50.793Z,-3.61
2019-01-21T05:54:41.329Z,-3.71
2019-01-21T05:57:31.918Z,-3.78
2019-01-21T06:00:24.371Z,-3.74
2019-01-21T06:03:16.866Z,-3.80
2019-01-21T06:06:07.407Z,-3.87
2019-01-21T06:08:59.920Z,-3.91
2019-01-21T06:11:52.324Z,-3.99
2019-01-21T06:14:42.908Z,-4.07
2019-01-21T06:17:35.344Z,-4.08
2019-01-21T06:20:25.907Z,-4.07
2019-01-21T06:23:18.354Z,-4.19
2019-01-21T06:26:08.917Z,-4.19
2019-01-21T06:29:01.395Z,-4.14
2019-01-21T06:31:51.937Z,-4.12
2019-01-21T06:34:42.520Z,-3.88
2019-01-21T06:37:33.054Z,-2.61
2019-01-21T06:40:25.535Z,-2.70
2019-01-21T06:43:16.076Z,-3.02
2019-01-21T06:46:08.539Z,-3.31
2019-01-21T06:49:04.571Z,-3.52
2019-01-21T06:51:51.543Z,-3.66
2019-01-21T06:54:44.000Z,-3.83
2019-01-21T06:57:36.450Z,-3.89
2019-01-21T07:00:26.996Z,-4.00
2019-01-21T07:03:19.531Z,-4.08
2019-01-21T07:06:12.000Z,-4.12
2019-01-21T07:09:04.450Z,-4.22
2019-01-21T07:11:56.929Z,-4.23
2019-01-21T07:14:47.479Z,-4.24
2019-01-21T07:17:39.991Z,-4.24
2019-01-21T07:20:32.476Z,-4.23
2019-01-21T07:23:24.957Z,-4.24
2019-01-21T07:26:15.533Z,-4.26
2019-01-21T07:29:06.102Z,-4.30
2019-01-21T07:31:58.562Z,-4.29
2019-01-21T07:34:49.110Z,-4.31
2019-01-21T07:37:39.669Z,-4.38
2019-01-21T07:40:30.224Z,-4.44
2019-01-21T07:43:20.784Z,-4.51
2019-01-21T07:46:11.332Z,-4.51
2019-01-21T07:49:03.803Z,-4.50
2019-01-21T07:57:39.116Z,-4.47
2019-01-21T08:00:31.582Z,-4.43
2019-01-21T08:02:55.955Z,-4.35
2019-01-21T08:05:46.543Z,-4.35
2019-01-21T08:08:39.002Z,-4.33
2019-01-21T08:11:31.477Z,-4.25
2019-01-21T08:14:23.947Z,-4.15
2019-01-21T08:17:16.424Z,-4.09
2019-01-21T08:20:08.909Z,-3.95
2019-01-21T08:22:59.451Z,-3.79
2019-01-21T08:25:50.045Z,-3.61
2019-01-21T08:28:42.495Z,-3.24
2019-01-21T08:31:34.953Z,-2.71
2019-01-21T08:34:27.422Z,-2.30
2019-01-21T08:37:19.908Z,-1.96
2019-01-21T08:40:12.386Z,-1.28
2019-01-21T08:43:02.929Z,-1.28
2019-01-21T08:45:55.422Z,-1.02
2019-01-21T08:48:45.966Z,-0.69
2019-01-21T08:51:38.451Z,-0.40
2019-01-21T08:54:30.902Z,-0.11
2019-01-21T08:57:23.360Z,0.13
2019-01-21T09:00:15.790Z,0.41
2019-01-21T09:03:08.297Z,0.71
2019-01-21T09:06:00.746Z,0.68
2019-01-21T09:08:53.219Z,0.75
2019-01-21T09:11:43.782Z,0.90
2019-01-21T09:14:36.243Z,1.17
2019-01-21T09:17:28.709Z,1.36
2019-01-21T09:20:21.193Z,1.55
2019-01-21T09:23:13.636Z,1.55
2019-01-21T09:26:06.083Z,1.78
2019-01-21T09:28:56.639Z,2.01
2019-01-21T09:31:49.082Z,1.99
2019-01-21T09:34:39.633Z,2.09
2019-01-21T09:37:30.162Z,2.20
2019-01-21T09:40:22.650Z,2.12
2019-01-21T09:43:13.242Z,2.02
2019-01-21T09:46:05.675Z,2.01
2019-01-21T09:48:16.285Z,2.11
2019-01-21T09:53:19.935Z,1.81
2019-01-21T09:55:30.874Z,1.84
2019-01-21T09:57:41.776Z,1.97
2019-01-21T09:59:52.808Z,1.90
2019-01-21T10:02:45.297Z,1.91
2019-01-21T10:05:37.747Z,1.78
2019-01-21T10:08:30.190Z,1.59
2019-01-21T10:11:22.645Z,1.81
2019-01-21T10:14:13.188Z,1.93
2019-01-21T10:17:05.685Z,2.09
2019-01-21T10:19:58.136Z,1.91
2019-01-21T10:22:30.726Z,1.88
2019-01-21T10:25:23.191Z,1.99
2019-01-21T10:28:15.635Z,2.10
2019-01-21T10:31:08.121Z,2.13
2019-01-21T10:33:58.665Z,2.16
2019-01-21T10:36:51.129Z,2.17
2019-01-21T10:39:43.579Z,2.19
2019-01-21T10:42:34.139Z,2.25
2019-01-21T10:45:26.573Z,2.11
2019-01-21T10:48:19.037Z,2.07
2019-01-21T10:51:09.580Z,1.88
2019-01-21T10:54:00.139Z,1.90
2019-01-21T10:56:52.583Z,2.01
2019-01-21T10:59:43.158Z,2.02
2019-01-21T11:02:15.781Z,2.11
2019-01-21T11:05:08.227Z,1.96
2019-01-21T11:08:03.475Z,2.01
2019-01-21T11:10:54.033Z,1.94
2019-01-21T11:13:46.497Z,1.93
2019-01-21T11:16:38.967Z,2.07
2019-01-21T11:19:31.424Z,2.02
2019-01-21T11:22:23.862Z,1.94
2019-01-21T11:25:16.323Z,1.94
2019-01-21T11:28:08.818Z,2.00
2019-01-21T11:30:59.361Z,2.07
2019-01-21T11:33:51.856Z,2.05
2019-01-21T11:36:44.332Z,1.98
2019-01-21T11:39:36.782Z,1.83
2019-01-21T11:42:29.226Z,1.92
2019-01-21T11:45:19.791Z,1.82
2019-01-21T11:48:12.223Z,1.90
2019-01-21T11:51:04.703Z,1.91
2019-01-21T11:53:55.248Z,1.97
2019-01-21T11:56:47.723Z,1.80
2019-01-21T11:59:40.181Z,1.70
2019-01-21T12:02:32.641Z,1.86
2019-01-21T12:05:23.215Z,1.89
2019-01-21T12:08:13.753Z,1.86
2019-01-21T12:11:06.209Z,1.80
2019-01-21T12:13:58.654Z,1.60
2019-01-21T12:16:51.144Z,1.50
2019-01-21T12:19:41.689Z,1.56
2019-01-21T12:22:32.244Z,1.53
2019-01-21T12:25:24.683Z,1.60
2019-01-21T12:28:15.255Z,1.65
2019-01-21T12:31:05.787Z,1.65
2019-01-21T12:33:56.358Z,1.70
2019-01-21T12:36:48.827Z,2.14
2019-01-21T12:39:42.318Z,2.62
2019-01-21T12:42:34.776Z,2.32
2019-01-21T12:45:27.221Z,2.13
2019-01-21T12:48:19.689Z,2.02
2019-01-21T12:51:10.230Z,1.90
2019-01-21T12:54:02.707Z,1.82
2019-01-21T12:56:55.454Z,1.77
2019-01-21T12:59:47.933Z,1.68
2019-01-21T13:02:38.494Z,1.59
2019-01-21T13:05:30.962Z,1.42
2019-01-21T13:08:23.415Z,1.38
2019-01-21T13:11:13.977Z,1.40
2019-01-21T13:14:04.615Z,1.38
2019-01-21T13:16:57.095Z,1.30
2019-01-21T13:19:49.571Z,1.27
2019-01-21T13:22:40.118Z,1.36
2019-01-21T13:25:30.670Z,1.35
2019-01-21T13:28:23.109Z,1.40
2019-01-21T13:31:15.567Z,1.44
2019-01-21T13:34:06.112Z,1.46
2019-01-21T13:36:58.582Z,1.50
2019-01-21T13:39:51.050Z,1.30
2019-01-21T13:42:43.538Z,1.33
2019-01-21T13:45:34.093Z,1.30
2019-01-21T13:48:26.526Z,1.37
2019-01-21T13:51:18.989Z,1.30
2019-01-21T13:54:09.514Z,1.33
2019-01-21T13:57:00.105Z,1.37
2019-01-21T13:59:50.658Z,1.32
2019-01-21T14:02:43.150Z,1.38
2019-01-21T14:05:35.631Z,1.24
2019-01-21T14:08:28.089Z,1.27
2019-01-21T14:11:20.560Z,1.26
2019-01-21T14:14:13.015Z,1.30
2019-01-21T14:17:05.470Z,1.38
2019-01-21T14:19:57.942Z,1.40
2019-01-21T14:22:48.517Z,1.30
2019-01-21T14:25:39.070Z,1.24
2019-01-21T14:28:31.553Z,1.24
2019-01-21T14:31:22.094Z,1.11
2019-01-21T14:34:14.560Z,1.05
2019-01-21T14:37:05.105Z,1.06
2019-01-21T14:39:55.704Z,1.03
2019-01-21T14:42:48.143Z,0.99
2019-01-21T14:45:38.707Z,1.00
2019-01-21T14:48:29.301Z,0.98
2019-01-21T14:51:19.831Z,0.98
2019-01-21T14:54:10.422Z,0.93
2019-01-21T14:57:02.895Z,0.98
2019-01-21T14:59:55.362Z,0.94
2019-01-21T15:02:47.870Z,0.91
2019-01-21T15:05:40.383Z,0.90
2019-01-21T15:08:32.819Z,0.85
2019-01-21T15:11:23.355Z,0.81
2019-01-21T15:14:13.914Z,0.79
2019-01-21T15:17:06.394Z,0.80
2019-01-21T15:19:58.896Z,0.81
2019-01-21T15:22:51.335Z,0.80
2019-01-21T15:25:41.873Z,0.77
2019-01-21T15:28:14.491Z,0.73
2019-01-21T15:31:06.963Z,0.70
2019-01-21T15:33:57.618Z,0.67
2019-01-21T15:36:50.110Z,0.64
2019-01-21T15:39:42.762Z,0.63
2019-01-21T15:42:35.257Z,0.58
2019-01-21T15:45:25.824Z,0.51
2019-01-21T15:48:18.286Z,0.47
2019-01-21T15:51:08.978Z,0.37
2019-01-21T15:54:01.428Z,0.30
2019-01-21T15:56:53.918Z,0.28
2019-01-21T15:59:46.369Z,0.34
2019-01-21T16:02:37.181Z,0.30
2019-01-21T16:05:29.652Z,0.27
2019-01-21T16:08:22.145Z,0.14
2019-01-21T16:11:14.611Z,0.09
2019-01-21T16:13:46.503Z,0.08
2019-01-21T16:16:38.971Z,0.05
2019-01-21T16:19:31.435Z,0.04
2019-01-21T16:22:22.041Z,0.03
2019-01-21T16:25:14.507Z,-0.02
2019-01-21T16:28:05.090Z,1.35
2019-01-21T16:30:57.602Z,3.28
2019-01-21T16:33:50.066Z,3.15
2019-01-21T16:36:42.531Z,2.24
2019-01-21T16:39:35.014Z,1.47
2019-01-21T16:42:25.563Z,1.03
2019-01-21T16:44:36.410Z,0.69
2019-01-21T16:46:47.223Z,0.42
2019-01-21T16:48:58.054Z,0.29
2019-01-21T16:51:08.838Z,0.19
2019-01-21T16:53:19.674Z,0.10
2019-01-21T16:55:30.487Z,0.02
2019-01-21T16:57:41.387Z,-0.04
2019-01-21T16:59:52.227Z,-0.08
2019-01-21T17:04:55.420Z,-0.14
2019-01-21T17:07:06.303Z,-0.39
2019-01-21T17:09:17.161Z,-0.55
2019-01-21T17:11:27.995Z,-0.64
2019-01-21T17:13:38.829Z,-0.79
2019-01-21T17:15:49.668Z,-0.89
2019-01-21T17:18:00.498Z,-0.95
2019-01-21T17:20:53.006Z,-1.05
2019-01-21T17:23:03.814Z,-1.11
2019-01-21T17:25:14.774Z,-1.21
2019-01-21T17:27:25.640Z,-1.30
2019-01-21T17:29:36.553Z,-1.29
2019-01-21T17:31:47.745Z,-1.34
2019-01-21T17:33:58.557Z,-1.38
2019-01-21T17:36:09.393Z,-1.43
2019-01-21T17:38:20.239Z,-1.42
2019-01-21T17:40:31.155Z,-1.40
2019-01-21T17:42:42.009Z,-1.42
2019-01-21T17:44:52.923Z,-1.40
2019-01-21T17:47:03.895Z,-1.40
2019-01-21T17:49:14.772Z,-1.43
2019-01-21T17:51:25.721Z,-1.49
2019-01-21T17:53:36.546Z,-1.52
2019-01-21T17:55:47.371Z,-1.62
2019-01-21T17:57:58.285Z,-1.70
2019-01-21T18:00:50.913Z,-1.79
2019-01-21T18:03:01.864Z,-1.81
2019-01-21T18:05:12.712Z,-1.82
2019-01-21T18:07:23.639Z,-1.87
2019-01-21T18:09:34.454Z,-1.87
2019-01-21T18:11:45.263Z,-1.85
2019-01-21T18:13:56.129Z,-1.84
2019-01-21T18:16:06.936Z,-1.79
2019-01-21T18:18:17.885Z,-1.76
2019-01-21T18:20:28.695Z,-1.74
2019-01-21T18:22:39.726Z,-1.70
2019-01-21T18:24:50.542Z,-1.64
2019-01-21T18:27:01.428Z,-1.62
2019-01-21T18:29:12.345Z,-1.63
2019-01-21T18:31:23.181Z,-1.67
2019-01-21T18:33:34.193Z,-1.67
2019-01-21T18:35:45.044Z,-1.63
2019-01-21T18:38:37.563Z,-1.67
2019-01-21T18:40:48.385Z,-1.71
2019-01-21T18:42:59.343Z,-1.75
2019-01-21T18:45:51.778Z,-1.75
2019-01-21T18:48:02.937Z,-1.73
2019-01-21T18:50:13.875Z,-1.69
2019-01-21T18:52:24.699Z,-1.69
2019-01-21T18:54:57.299Z,-1.67
2019-01-21T18:57:08.212Z,-1.66
2019-01-21T18:59:19.222Z,-1.66
2019-01-21T19:01:30.074Z,-1.63
2019-01-21T19:03:41.022Z,-1.58
2019-01-21T19:05:51.902Z,-1.58
2019-01-21T19:08:02.920Z,-1.56
2019-01-21T19:10:56.436Z,-1.50
2019-01-21T19:13:07.238Z,-1.47
2019-01-21T19:15:59.813Z,-1.48
2019-01-21T19:18:10.763Z,-1.42
2019-01-21T19:20:21.679Z,-1.45
2019-01-21T19:22:32.501Z,-1.46
2019-01-21T19:24:43.362Z,-1.45
2019-01-21T19:26:54.271Z,-1.42
2019-01-21T19:29:05.089Z,-1.37
2019-01-21T19:31:16.020Z,-1.32
2019-01-21T19:33:26.838Z,-1.29
2019-01-21T19:35:37.694Z,-1.17
2019-01-21T19:37:48.623Z,-1.14
2019-01-21T19:39:59.442Z,-1.11
2019-01-21T19:42:10.330Z,-1.10
2019-01-21T19:44:21.165Z,-1.17
2019-01-21T19:46:32.035Z,-1.21
2019-01-21T19:48:42.868Z,-1.21
2019-01-21T19:53:10.968Z,-1.17
2019-01-21T19:55:43.646Z,-1.20
2019-01-21T19:57:54.452Z,-1.17
2019-01-21T20:00:25.140Z,-1.26
2019-01-21T20:02:36.144Z,-1.26
2019-01-21T20:04:47.039Z,-1.23
2019-01-21T20:06:57.889Z,-1.17
2019-01-21T20:09:08.811Z,-1.17
2019-01-21T20:11:19.764Z,-1.20
2019-01-21T20:13:30.618Z,-1.24
2019-01-21T20:15:41.435Z,-1.28
2019-01-21T20:17:52.554Z,-1.29
2019-01-21T20:20:25.176Z,-1.35
2019-01-21T20:22:36.093Z,-1.42
2019-01-21T20:24:46.929Z,-1.46
2019-01-21T20:26:57.885Z,-1.49
2019-01-21T20:29:08.726Z,-1.50
2019-01-21T20:31:19.566Z,-1.48
2019-01-21T20:38:04.856Z,-1.57
2019-01-21T20:40:35.552Z,-1.54
2019-01-21T20:42:46.515Z,-1.57
2019-01-21T20:44:57.374Z,-1.59
2019-01-21T20:47:08.318Z,-1.54
2019-01-21T20:49:19.146Z,-1.50
2019-01-21T20:51:29.966Z,-1.50
2019-01-21T20:55:58.175Z,-1.41
2019-01-21T20:58:09.590Z,-1.35
2019-01-21T21:01:02.066Z,-1.25
2019-01-21T21:03:13.082Z,-1.23
2019-01-21T21:05:24.115Z,-1.19
2019-01-21T21:07:34.913Z,-1.22
2019-01-21T21:14:19.436Z,-1.16
2019-01-21T21:16:30.249Z,-1.19
2019-01-21T21:18:41.194Z,-1.29
2019-01-21T21:20:51.980Z,-1.34
2019-01-21T21:23:02.925Z,-1.34
2019-01-21T21:25:55.485Z,-1.36
2019-01-21T21:28:06.456Z,-1.36
2019-01-21T21:30:39.131Z,-1.39
2019-01-21T21:32:50.377Z,-1.36
2019-01-21T21:35:01.356Z,-1.34
2019-01-21T21:37:12.232Z,-1.33
2019-01-21T21:39:23.058Z,-1.33
2019-01-21T21:41:34.200Z,-1.43
2019-01-21T21:43:45.011Z,-1.50
2019-01-21T21:45:56.027Z,-1.53
2019-01-21T21:48:06.914Z,-1.60
2019-01-21T21:50:37.694Z,-1.62
2019-01-21T21:52:48.573Z,-1.57
2019-01-21T21:54:59.401Z,-1.52
2019-01-21T21:57:10.218Z,-1.50
2019-01-21T21:59:21.036Z,-1.42
2019-01-21T22:01:32.016Z,-1.33
2019-01-21T22:03:56.415Z,-1.33
2019-01-21T22:06:07.287Z,-1.42
2019-01-21T22:08:18.068Z,-1.60
2019-01-21T22:10:29.009Z,-1.66
2019-01-21T22:16:00.176Z,-1.71
2019-01-21T22:18:11.283Z,-1.80
2019-01-21T22:21:03.816Z,-1.89
2019-01-21T22:23:14.632Z,-1.87
2019-01-21T22:25:25.446Z,-1.93
2019-01-21T22:27:36.380Z,-1.91
2019-01-21T22:29:47.217Z,-1.89
2019-01-21T22:31:58.085Z,-2.00
2019-01-21T22:34:08.911Z,-2.03
2019-01-21T22:36:21.667Z,-2.04
2019-01-21T22:38:32.490Z,-2.08
2019-01-21T22:40:43.331Z,-2.18
2019-01-21T22:42:54.157Z,-2.34
2019-01-21T22:45:46.612Z,-2.46
2019-01-21T22:47:57.458Z,-2.49
2019-01-21T22:50:49.913Z,-2.54
2019-01-21T22:53:00.748Z,-2.61
2019-01-21T22:55:53.202Z,-2.65
2019-01-21T22:58:04.147Z,-2.82
2019-01-21T23:00:56.640Z,-2.94
2019-01-21T23:03:21.341Z,-3.08
2019-01-21T23:05:32.154Z,-3.08
2019-01-21T23:07:43.000Z,-3.11
2019-01-21T23:09:53.797Z,-3.07
2019-01-21T23:12:04.813Z,-3.10
2019-01-21T23:14:15.653Z,-3.19
2019-01-21T23:16:26.468Z,-3.32
2019-01-21T23:18:37.279Z,-3.41
2019-01-21T23:20:48.102Z,-3.51
2019-01-21T23:22:58.919Z,-3.53
2019-01-21T23:25:09.844Z,-3.57
2019-01-21T23:27:22.544Z,-3.61
2019-01-21T23:29:33.355Z,-3.52
2019-01-21T23:31:44.157Z,-3.52
2019-01-21T23:33:54.983Z,-3.52
2019-01-21T23:36:05.882Z,-3.53
2019-01-21T23:38:16.814Z,-3.57
2019-01-21T23:40:27.614Z,-3.59
2019-01-21T23:42:38.509Z,-3.61
2019-01-21T23:44:49.321Z,-3.59
2019-01-21T23:47:00.235Z,-3.64
2019-01-21T23:49:11.155Z,-3.70
2019-01-21T23:51:21.965Z,-3.83
2019-01-21T23:53:34.677Z,-3.90
2019-01-21T23:55:47.522Z,-3.94
2019-01-21T23:57:58.314Z,-3.91
